This is the latest recevied weather packets stored in our database for station/object OE-11051. If no packets are shown the sender has not sent any weather packets the latest 10 day(s).
| Time | Temp. | Humidity | Pressure | Rain* | Wind** | Luminosity | Snow |
|---|---|---|---|---|---|---|---|
| 1787749880 | 26.67° C | 53% | 1015.5 hPa | 0 mm | - | 677 W/m² | - |
| 1787749507 | 26.67° C | 53% | 1015.5 hPa | 0 mm | - | 754 W/m² | - |
| 1787748907 | 26.11° C | 54% | 1015.7 hPa | 0 mm | - | 716 W/m² | - |
| 1787748080 | 25.56° C | 57% | 1015.9 hPa | 0 mm | - | 322 W/m² | - |
| 1787747707 | 25.56° C | 57% | 1015.9 hPa | 0 mm | - | 329 W/m² | - |
| 1787747106 | 25.56° C | 57% | 1016.1 hPa | 0 mm | - | 264 W/m² | - |
| 1787746280 | 25.56° C | 57% | 1016.1 hPa | 0 mm | - | 509 W/m² | - |
| 1787745907 | 26.11° C | 56% | 1016 hPa | 0 mm | - | 625 W/m² | - |
| 1787745306 | 25.56° C | 57% | 1016.1 hPa | 0 mm | - | 748 W/m² | - |
| 1787744479 | 25.56° C | 58% | 1016.2 hPa | 0 mm | - | 735 W/m² | - |
| 1787744106 | 25.56° C | 58% | 1016.3 hPa | 0 mm | - | 735 W/m² | - |
| 1787743507 | 25° C | 60% | 1016.5 hPa | 0 mm | - | 741 W/m² | - |
| 1787742680 | 24.44° C | 62% | 1016.7 hPa | 0 mm | - | 696 W/m² | - |
| 1787742307 | 23.89° C | 62% | 1016.8 hPa | 0 mm | - | 535 W/m² | - |
| 1787741706 | 23.33° C | 65% | 1016.9 hPa | 0 mm | - | 458 W/m² | - |
| 1787740880 | 23.33° C | 65% | 1017 hPa | 0 mm | - | 477 W/m² | - |
| 1787740507 | 23.89° C | 64% | 1017 hPa | 0 mm | - | 625 W/m² | - |
| 1787739907 | 23.33° C | 65% | 1017.1 hPa | 0 mm | - | 799 W/m² | - |
| 1787739079 | 23.33° C | 67% | 1017.1 hPa | 0 mm | - | 722 W/m² | - |
| 1787738707 | 22.78° C | 70% | 1017.3 hPa | 0 mm | - | 761 W/m² | - |
| 1787738107 | 21.67° C | 73% | 1017.5 hPa | 0 mm | - | 580 W/m² | - |
| 1787737280 | 22.22° C | 71% | 1017.5 hPa | 0 mm | - | 754 W/m² | - |
| 1787736906 | 21.11° C | 76% | 1017.9 hPa | 0 mm | - | 683 W/m² | - |
| 1787736307 | 20.56° C | 78% | 1018 hPa | 0 mm | - | 748 W/m² | - |
| 1787735480 | 18.89° C | 83% | 1018 hPa | 0 mm | - | 503 W/m² | - |
* Rain latest hour (hover to see other rain measurements)
** Current wind speed in m/s (hover to see current wind gust speed)